Terminal Aerodrome Forecast
Issued by NWS

Home | Current Version | Previous Version | Text Only | Print | Product List | Glossary On
Versions: 1 2 3 4 5 6 7 8 9 10 11 12 13 14 15 16 17 18 19 20 21 22 23 24 25 26
495
FTUS42 KCAE 031508 AAA
TAFCUB
TAF AMD
KCUB 031508Z 0315/0412 04003KT P6SM BKN150
     FM040000 VRB03KT P6SM OVC100
     FM040600 08003KT P6SM -SHRA OVC050=

USA.gov is the U.S. government's official web portal to all federal, state and local government web resources and services.